sensor_id;sensor_type;location;lat;lon;timestamp;pressure;altitude;pressure_sealevel;temperature;humidity
85066;BME280;75401;52.588;13.224;2024-01-10T00:01:22;103298.00;;;-6.46;73.68
85066;BME280;75401;52.588;13.224;2024-01-10T00:03:49;103305.88;;;-6.42;73.43
85066;BME280;75401;52.588;13.224;2024-01-10T00:06:14;103307.63;;;-6.41;73.64
85066;BME280;75401;52.588;13.224;2024-01-10T00:08:39;103304.13;;;-6.43;73.40
85066;BME280;75401;52.588;13.224;2024-01-10T00:11:04;103296.31;;;-6.41;73.51
85066;BME280;75401;52.588;13.224;2024-01-10T00:13:31;103297.16;;;-6.45;74.14
85066;BME280;75401;52.588;13.224;2024-01-10T00:15:57;103297.16;;;-6.45;73.26
85066;BME280;75401;52.588;13.224;2024-01-10T00:18:22;103260.50;;;-6.63;73.87
85066;BME280;75401;52.588;13.224;2024-01-10T00:20:49;103287.59;;;-6.46;73.75
85066;BME280;75401;52.588;13.224;2024-01-10T00:23:14;103291.94;;;-6.45;73.81
85066;BME280;75401;52.588;13.224;2024-01-10T00:25:39;103292.78;;;-6.48;73.97
85066;BME280;75401;52.588;13.224;2024-01-10T00:28:05;103284.13;;;-6.47;74.12
85066;BME280;75401;52.588;13.224;2024-01-10T00:30:30;103285.84;;;-6.47;73.97
85066;BME280;75401;52.588;13.224;2024-01-10T00:32:56;103290.19;;;-6.46;74.44
85066;BME280;75401;52.588;13.224;2024-01-10T00:35:21;103285.91;;;-6.44;74.25
85066;BME280;75401;52.588;13.224;2024-01-10T00:37:47;103274.56;;;-6.46;74.66
85066;BME280;75401;52.588;13.224;2024-01-10T00:40:13;103278.09;;;-6.44;74.28
85066;BME280;75401;52.588;13.224;2024-01-10T00:42:38;103271.13;;;-6.44;74.21
85066;BME280;75401;52.588;13.224;2024-01-10T00:45:04;103276.38;;;-6.42;74.02
85066;BME280;75401;52.588;13.224;2024-01-10T00:47:30;103270.28;;;-6.41;74.16
85066;BME280;75401;52.588;13.224;2024-01-10T00:49:55;103268.56;;;-6.42;74.10
85066;BME280;75401;52.588;13.224;2024-01-10T00:52:20;103264.16;;;-6.46;74.58
85066;BME280;75401;52.588;13.224;2024-01-10T00:54:47;103265.91;;;-6.47;74.22
85066;BME280;75401;52.588;13.224;2024-01-10T00:57:13;103257.22;;;-6.47;74.04
85066;BME280;75401;52.588;13.224;2024-01-10T00:59:38;103258.09;;;-6.47;74.39
85066;BME280;75401;52.588;13.224;2024-01-10T01:02:04;103259.84;;;-6.46;74.22
85066;BME280;75401;52.588;13.224;2024-01-10T01:04:30;103264.16;;;-6.46;74.35
85066;BME280;75401;52.588;13.224;2024-01-10T01:06:55;103256.34;;;-6.49;74.41
85066;BME280;75401;52.588;13.224;2024-01-10T01:09:20;103265.03;;;-6.47;74.49
85066;BME280;75401;52.588;13.224;2024-01-10T01:11:47;103268.47;;;-6.48;74.59
85066;BME280;75401;52.588;13.224;2024-01-10T01:14:12;103262.44;;;-6.47;74.28
85066;BME280;75401;52.588;13.224;2024-01-10T01:16:38;103264.16;;;-6.49;74.47
85066;BME280;75401;52.588;13.224;2024-01-10T01:19:03;103266.72;;;-6.51;74.63
85066;BME280;75401;52.588;13.224;2024-01-10T01:21:29;103274.50;;;-6.52;74.78
85066;BME280;75401;52.588;13.224;2024-01-10T01:23:54;103267.56;;;-6.53;74.74
85066;BME280;75401;52.588;13.224;2024-01-10T01:26:20;103260.63;;;-6.53;74.79
85066;BME280;75401;52.588;13.224;2024-01-10T01:28:46;103258.88;;;-6.54;74.92
85066;BME280;75401;52.588;13.224;2024-01-10T01:31:12;103263.22;;;-6.53;74.23
85066;BME280;75401;52.588;13.224;2024-01-10T01:33:37;103263.22;;;-6.53;74.43
85066;BME280;75401;52.588;13.224;2024-01-10T01:36:03;103267.56;;;-6.53;74.56
85066;BME280;75401;52.588;13.224;2024-01-10T01:38:32;103271.88;;;-6.54;74.48
85066;BME280;75401;52.588;13.224;2024-01-10T01:40:57;103270.06;;;-6.61;74.56
85066;BME280;75401;52.588;13.224;2024-01-10T01:43:23;103262.28;;;-6.59;74.39
85066;BME280;75401;52.588;13.224;2024-01-10T01:45:52;103264.84;;;-6.61;74.47
85066;BME280;75401;52.588;13.224;2024-01-10T01:48:18;103256.16;;;-6.63;74.46
85066;BME280;75401;52.588;13.224;2024-01-10T01:50:44;103256.13;;;-6.67;74.28
85066;BME280;75401;52.588;13.224;2024-01-10T01:53:10;103263.03;;;-6.66;74.47
85066;BME280;75401;52.588;13.224;2024-01-10T01:55:35;103262.16;;;-6.67;74.25
85066;BME280;75401;52.588;13.224;2024-01-10T01:58:01;103259.56;;;-6.70;74.41
85066;BME280;75401;52.588;13.224;2024-01-10T02:00:27;103255.19;;;-6.69;74.36
85066;BME280;75401;52.588;13.224;2024-01-10T02:02:53;103250.84;;;-6.72;74.74
85066;BME280;75401;52.588;13.224;2024-01-10T02:05:20;103246.47;;;-6.74;74.59
85066;BME280;75401;52.588;13.224;2024-01-10T02:07:45;103246.50;;;-6.73;74.47
85066;BME280;75401;52.588;13.224;2024-01-10T02:10:10;103248.22;;;-6.73;74.50
85066;BME280;75401;52.588;13.224;2024-01-10T02:12:35;103250.81;;;-6.73;74.19
85066;BME280;75401;52.588;13.224;2024-01-10T02:15:01;103252.53;;;-6.74;74.49
85066;BME280;75401;52.588;13.224;2024-01-10T02:17:27;103256.88;;;-6.74;74.23
85066;BME280;75401;52.588;13.224;2024-01-10T02:22:45;103258.59;;;-6.76;74.31
85066;BME280;75401;52.588;13.224;2024-01-10T02:25:13;103249.81;;;-6.84;74.26
85066;BME280;75401;52.588;13.224;2024-01-10T02:27:39;103261.97;;;-6.83;74.17
85066;BME280;75401;52.588;13.224;2024-01-10T02:30:06;103256.75;;;-6.83;74.42
85066;BME280;75401;52.588;13.224;2024-01-10T02:32:32;103277.56;;;-6.83;74.05
85066;BME280;75401;52.588;13.224;2024-01-10T02:34:58;103254.03;;;-6.94;74.66
85066;BME280;75401;52.588;13.224;2024-01-10T02:37:24;103253.28;;;-6.84;74.37
85066;BME280;75401;52.588;13.224;2024-01-10T02:39:49;103227.94;;;-7.00;74.52
85066;BME280;75401;52.588;13.224;2024-01-10T02:42:16;103256.75;;;-6.85;74.86
85066;BME280;75401;52.588;13.224;2024-01-10T02:44:41;103255.88;;;-6.84;74.48
85066;BME280;75401;52.588;13.224;2024-01-10T02:47:07;103258.50;;;-6.84;74.61
85066;BME280;75401;52.588;13.224;2024-01-10T02:49:32;103255.00;;;-6.84;74.48
85066;BME280;75401;52.588;13.224;2024-01-10T02:51:58;103258.47;;;-6.85;74.27
85066;BME280;75401;52.588;13.224;2024-01-10T02:54:23;103253.31;;;-6.82;74.70
85066;BME280;75401;52.588;13.224;2024-01-10T02:56:48;103242.91;;;-6.82;74.56
85066;BME280;75401;52.588;13.224;2024-01-10T02:59:15;103241.16;;;-6.83;74.61
85066;BME280;75401;52.588;13.224;2024-01-10T03:01:40;103236.84;;;-6.81;74.66
85066;BME280;75401;52.588;13.224;2024-01-10T03:04:06;103234.25;;;-6.81;74.56
85066;BME280;75401;52.588;13.224;2024-01-10T03:06:31;103228.16;;;-6.83;74.56
85066;BME280;75401;52.588;13.224;2024-01-10T03:08:56;103222.97;;;-6.82;74.40
85066;BME280;75401;52.588;13.224;2024-01-10T03:11:22;103226.44;;;-6.83;74.62
85066;BME280;75401;52.588;13.224;2024-01-10T03:13:47;103233.34;;;-6.82;74.99
85066;BME280;75401;52.588;13.224;2024-01-10T03:16:14;103223.00;;;-6.80;75.02
85066;BME280;75401;52.588;13.224;2024-01-10T03:18:39;103215.19;;;-6.79;74.99
85066;BME280;75401;52.588;13.224;2024-01-10T03:21:05;103224.72;;;-6.79;75.38
85066;BME280;75401;52.588;13.224;2024-01-10T03:23:30;103227.31;;;-6.79;74.94
85066;BME280;75401;52.588;13.224;2024-01-10T03:25:56;103232.53;;;-6.79;75.11
85066;BME280;75401;52.588;13.224;2024-01-10T03:28:21;103229.97;;;-6.76;75.09
85066;BME280;75401;52.588;13.224;2024-01-10T03:30:46;103235.22;;;-6.73;74.92
85066;BME280;75401;52.588;13.224;2024-01-10T03:33:13;103188.91;;;-7.03;74.55
85066;BME280;75401;52.588;13.224;2024-01-10T03:35:38;103230.03;;;-6.72;74.48
85066;BME280;75401;52.588;13.224;2024-01-10T03:38:04;103230.06;;;-6.70;74.30
85066;BME280;75401;52.588;13.224;2024-01-10T03:40:29;103237.91;;;-6.67;74.30
85066;BME280;75401;52.588;13.224;2024-01-10T03:42:54;103232.66;;;-6.69;74.25
85066;BME280;75401;52.588;13.224;2024-01-10T03:45:20;103233.53;;;-6.68;74.39
85066;BME280;75401;52.588;13.224;2024-01-10T03:47:45;103226.63;;;-6.68;74.50
85066;BME280;75401;52.588;13.224;2024-01-10T03:50:12;103224.00;;;-6.68;74.54
85066;BME280;75401;52.588;13.224;2024-01-10T03:52:37;103227.50;;;-6.67;74.33
85066;BME280;75401;52.588;13.224;2024-01-10T03:55:03;103224.06;;;-6.65;74.48
85066;BME280;75401;52.588;13.224;2024-01-10T03:57:29;103218.84;;;-6.65;74.30
85066;BME280;75401;52.588;13.224;2024-01-10T03:59:54;103225.78;;;-6.64;74.31
85066;BME280;75401;52.588;13.224;2024-01-10T04:02:19;103203.94;;;-6.78;74.01
85066;BME280;75401;52.588;13.224;2024-01-10T04:04:45;103215.38;;;-6.65;74.26
85066;BME280;75401;52.588;13.224;2024-01-10T04:07:11;103212.78;;;-6.65;73.83
85066;BME280;75401;52.588;13.224;2024-01-10T04:09:36;103203.22;;;-6.66;73.97
85066;BME280;75401;52.588;13.224;2024-01-10T04:12:02;103198.78;;;-6.72;74.00
85066;BME280;75401;52.588;13.224;2024-01-10T04:14:28;103198.84;;;-6.70;74.06
85066;BME280;75401;52.588;13.224;2024-01-10T04:16:53;103200.63;;;-6.65;73.59
85066;BME280;75401;52.588;13.224;2024-01-10T04:19:19;103191.94;;;-6.65;73.69
85066;BME280;75401;52.588;13.224;2024-01-10T04:21:44;103195.34;;;-6.69;73.59
85066;BME280;75401;52.588;13.224;2024-01-10T04:24:11;103199.72;;;-6.67;73.45
85066;BME280;75401;52.588;13.224;2024-01-10T04:26:36;103199.72;;;-6.68;73.59
85066;BME280;75401;52.588;13.224;2024-01-10T04:29:01;103203.19;;;-6.68;73.74
85066;BME280;75401;52.588;13.224;2024-01-10T04:31:26;103202.31;;;-6.67;73.68
85066;BME280;75401;52.588;13.224;2024-01-10T04:33:52;103203.22;;;-6.66;73.68
85066;BME280;75401;52.588;13.224;2024-01-10T04:36:17;103199.72;;;-6.67;74.05
85066;BME280;75401;52.588;13.224;2024-01-10T04:38:43;103191.91;;;-6.67;73.73
85066;BME280;75401;52.588;13.224;2024-01-10T04:41:09;103197.97;;;-6.69;73.95
85066;BME280;75401;52.588;13.224;2024-01-10T04:43:34;103205.75;;;-6.69;73.87
85066;BME280;75401;52.588;13.224;2024-01-10T04:46:00;103201.44;;;-6.70;73.59
85066;BME280;75401;52.588;13.224;2024-01-10T04:48:25;103209.25;;;-6.70;73.71
85066;BME280;75401;52.588;13.224;2024-01-10T04:50:50;103210.91;;;-6.74;73.46
85066;BME280;75401;52.588;13.224;2024-01-10T04:53:16;103209.19;;;-6.75;73.86
85066;BME280;75401;52.588;13.224;2024-01-10T04:55:41;103204.81;;;-6.77;73.69
85066;BME280;75401;52.588;13.224;2024-01-10T04:58:08;103204.84;;;-6.76;73.63
85066;BME280;75401;52.588;13.224;2024-01-10T05:00:33;103203.13;;;-6.75;73.73
85066;BME280;75401;52.588;13.224;2024-01-10T05:02:58;103208.31;;;-6.75;73.73
85066;BME280;75401;52.588;13.224;2024-01-10T05:05:24;103202.22;;;-6.76;73.78
85066;BME280;75401;52.588;13.224;2024-01-10T05:07:50;103194.38;;;-6.79;73.67
85066;BME280;75401;52.588;13.224;2024-01-10T05:10:15;103200.47;;;-6.78;73.60
85066;BME280;75401;52.588;13.224;2024-01-10T05:12:40;103200.47;;;-6.78;73.53
85066;BME280;75401;52.588;13.224;2024-01-10T05:15:08;103198.72;;;-6.79;73.61
85066;BME280;75401;52.588;13.224;2024-01-10T05:17:34;103200.41;;;-6.81;73.88
85066;BME280;75401;52.588;13.224;2024-01-10T05:19:59;103198.69;;;-6.81;73.85
85066;BME280;75401;52.588;13.224;2024-01-10T05:22:24;103202.13;;;-6.83;73.87
85066;BME280;75401;52.588;13.224;2024-01-10T05:24:50;103203.91;;;-6.82;73.83
85066;BME280;75401;52.588;13.224;2024-01-10T05:27:15;103210.81;;;-6.83;73.65
85066;BME280;75401;52.588;13.224;2024-01-10T05:29:40;103216.00;;;-6.84;73.51
85066;BME280;75401;52.588;13.224;2024-01-10T05:32:07;103216.88;;;-6.85;73.70
85066;BME280;75401;52.588;13.224;2024-01-10T05:34:32;103207.28;;;-6.88;73.57
85066;BME280;75401;52.588;13.224;2024-01-10T05:36:57;103202.09;;;-6.88;73.52
85066;BME280;75401;52.588;13.224;2024-01-10T05:39:23;103195.13;;;-6.89;73.51
85066;BME280;75401;52.588;13.224;2024-01-10T05:41:49;103199.44;;;-6.91;73.48
85066;BME280;75401;52.588;13.224;2024-01-10T05:44:14;103192.53;;;-6.90;73.53
85066;BME280;75401;52.588;13.224;2024-01-10T05:46:39;103200.28;;;-6.92;73.67
85066;BME280;75401;52.588;13.224;2024-01-10T05:49:06;103192.47;;;-6.92;73.60
85066;BME280;75401;52.588;13.224;2024-01-10T05:51:31;103191.63;;;-6.92;73.75
85066;BME280;75401;52.588;13.224;2024-01-10T05:53:57;103192.47;;;-6.93;73.66
85066;BME280;75401;52.588;13.224;2024-01-10T05:56:22;103190.72;;;-6.94;73.73
85066;BME280;75401;52.588;13.224;2024-01-10T05:58:47;103185.50;;;-6.97;73.82
85066;BME280;75401;52.588;13.224;2024-01-10T06:01:13;103195.91;;;-6.96;74.03
85066;BME280;75401;52.588;13.224;2024-01-10T06:03:38;103163.59;;;-7.16;73.76
85066;BME280;75401;52.588;13.224;2024-01-10T06:06:05;103195.03;;;-6.98;73.74
85066;BME280;75401;52.588;13.224;2024-01-10T06:08:30;103197.63;;;-6.98;73.57
85066;BME280;75401;52.588;13.224;2024-01-10T06:10:56;103189.72;;;-7.06;73.79
85066;BME280;75401;52.588;13.224;2024-01-10T06:13:21;103195.78;;;-7.05;73.31
85066;BME280;75401;52.588;13.224;2024-01-10T06:15:46;103185.38;;;-7.08;73.77
85066;BME280;75401;52.588;13.224;2024-01-10T06:18:11;103131.22;;;-7.39;74.49
85066;BME280;75401;52.588;13.224;2024-01-10T06:20:37;103187.09;;;-7.07;74.14
85066;BME280;75401;52.588;13.224;2024-01-10T06:23:04;103180.13;;;-7.10;73.64
85066;BME280;75401;52.588;13.224;2024-01-10T06:25:30;103187.97;;;-7.08;74.22
85066;BME280;75401;52.588;13.224;2024-01-10T06:27:55;103184.50;;;-7.09;73.84
85066;BME280;75401;52.588;13.224;2024-01-10T06:30:20;103174.94;;;-7.11;73.53
85066;BME280;75401;52.588;13.224;2024-01-10T06:32:47;103173.19;;;-7.11;73.40
85066;BME280;75401;52.588;13.224;2024-01-10T06:35:12;103181.84;;;-7.10;73.23
85066;BME280;75401;52.588;13.224;2024-01-10T06:37:38;103182.72;;;-7.11;73.88
85066;BME280;75401;52.588;13.224;2024-01-10T06:40:06;103176.66;;;-7.12;73.84
85066;BME280;75401;52.588;13.224;2024-01-10T06:42:31;103177.53;;;-7.11;73.26
85066;BME280;75401;52.588;13.224;2024-01-10T06:44:57;103179.28;;;-7.09;73.93
85066;BME280;75401;52.588;13.224;2024-01-10T06:47:22;103178.38;;;-7.12;73.64
85066;BME280;75401;52.588;13.224;2024-01-10T06:49:48;103185.31;;;-7.11;73.24
85066;BME280;75401;52.588;13.224;2024-01-10T06:52:13;103187.06;;;-7.10;73.06
85066;BME280;75401;52.588;13.224;2024-01-10T06:54:38;103186.16;;;-7.12;72.90
85066;BME280;75401;52.588;13.224;2024-01-10T06:57:05;103184.41;;;-7.15;73.49
85066;BME280;75401;52.588;13.224;2024-01-10T06:59:30;103175.72;;;-7.18;73.39
85066;BME280;75401;52.588;13.224;2024-01-10T07:01:56;103175.66;;;-7.20;73.50
85066;BME280;75401;52.588;13.224;2024-01-10T07:04:21;103170.47;;;-7.21;73.41
85066;BME280;75401;52.588;13.224;2024-01-10T07:06:46;103175.63;;;-7.23;73.48
85066;BME280;75401;52.588;13.224;2024-01-10T07:09:12;103173.00;;;-7.24;73.48
85066;BME280;75401;52.588;13.224;2024-01-10T07:11:37;103176.44;;;-7.27;73.31
85066;BME280;75401;52.588;13.224;2024-01-10T07:14:04;103175.47;;;-7.36;72.89
85066;BME280;75401;52.588;13.224;2024-01-10T07:16:29;103180.59;;;-7.39;72.91
85066;BME280;75401;52.588;13.224;2024-01-10T07:18:54;103176.19;;;-7.45;73.10
85066;BME280;75401;52.588;13.224;2024-01-10T07:21:20;103178.78;;;-7.46;73.20
85066;BME280;75401;52.588;13.224;2024-01-10T07:23:45;103180.50;;;-7.47;73.74
85066;BME280;75401;52.588;13.224;2024-01-10T07:26:12;103174.41;;;-7.47;73.40
85066;BME280;75401;52.588;13.224;2024-01-10T07:28:38;103172.69;;;-7.47;73.68
85066;BME280;75401;52.588;13.224;2024-01-10T07:31:05;103177.91;;;-7.47;73.87
85066;BME280;75401;52.588;13.224;2024-01-10T07:33:30;103183.16;;;-7.44;73.82
85066;BME280;75401;52.588;13.224;2024-01-10T07:35:55;103181.38;;;-7.46;73.70
85066;BME280;75401;52.588;13.224;2024-01-10T07:38:21;103184.81;;;-7.46;73.99
85066;BME280;75401;52.588;13.224;2024-01-10T07:40:46;103178.78;;;-7.46;74.21
85066;BME280;75401;52.588;13.224;2024-01-10T07:43:11;103195.25;;;-7.43;73.95
85066;BME280;75401;52.588;13.224;2024-01-10T07:45:37;103191.88;;;-7.39;74.04
85066;BME280;75401;52.588;13.224;2024-01-10T07:48:04;103195.38;;;-7.37;73.61
85066;BME280;75401;52.588;13.224;2024-01-10T07:50:29;103206.63;;;-7.36;73.68
85066;BME280;75401;52.588;13.224;2024-01-10T07:52:55;103205.81;;;-7.34;73.01
85066;BME280;75401;52.588;13.224;2024-01-10T07:55:20;103193.59;;;-7.38;73.14
85066;BME280;75401;52.588;13.224;2024-01-10T07:57:46;103192.72;;;-7.40;73.43
85066;BME280;75401;52.588;13.224;2024-01-10T08:00:12;103188.41;;;-7.38;73.19
85066;BME280;75401;52.588;13.224;2024-01-10T08:02:37;103188.44;;;-7.36;73.39
85066;BME280;75401;52.588;13.224;2024-01-10T08:05:05;103193.59;;;-7.38;73.48
85066;BME280;75401;52.588;13.224;2024-01-10T08:07:30;103184.94;;;-7.38;73.66
85066;BME280;75401;52.588;13.224;2024-01-10T08:09:56;103190.19;;;-7.35;73.93
85066;BME280;75401;52.588;13.224;2024-01-10T08:12:21;103182.47;;;-7.31;73.81
85066;BME280;75401;52.588;13.224;2024-01-10T08:14:46;103192.91;;;-7.26;73.69
85066;BME280;75401;52.588;13.224;2024-01-10T08:17:11;103173.88;;;-7.24;73.70
85066;BME280;75401;52.588;13.224;2024-01-10T08:19:37;103186.06;;;-7.20;73.67
85066;BME280;75401;52.588;13.224;2024-01-10T08:22:03;103187.88;;;-7.14;73.89
85066;BME280;75401;52.588;13.224;2024-01-10T08:24:29;103187.09;;;-7.07;73.83
85066;BME280;75401;52.588;13.224;2024-01-10T08:26:54;103190.63;;;-7.02;74.01
85066;BME280;75401;52.588;13.224;2024-01-10T08:29:19;103193.31;;;-6.97;73.98
85066;BME280;75401;52.588;13.224;2024-01-10T08:31:45;103174.09;;;-7.07;73.84
85066;BME280;75401;52.588;13.224;2024-01-10T08:34:10;103193.38;;;-6.91;74.07
85066;BME280;75401;52.588;13.224;2024-01-10T08:36:36;103141.91;;;-7.15;73.88
85066;BME280;75401;52.588;13.224;2024-01-10T08:39:02;103184.69;;;-6.92;73.58
85066;BME280;75401;52.588;13.224;2024-01-10T08:41:28;103198.75;;;-6.76;73.93
85066;BME280;75401;52.588;13.224;2024-01-10T08:43:53;103207.53;;;-6.70;73.62
85066;BME280;75401;52.588;13.224;2024-01-10T08:46:18;103202.38;;;-6.64;73.60
85066;BME280;75401;52.588;13.224;2024-01-10T08:48:43;103204.19;;;-6.57;73.68
85066;BME280;75401;52.588;13.224;2024-01-10T08:51:09;103192.97;;;-6.51;74.14
85066;BME280;75401;52.588;13.224;2024-01-10T08:53:34;103197.41;;;-6.43;73.64
85066;BME280;75401;52.588;13.224;2024-01-10T08:56:01;103196.63;;;-6.34;73.43
85066;BME280;75401;52.588;13.224;2024-01-10T08:58:26;103197.59;;;-6.23;73.76
85066;BME280;75401;52.588;13.224;2024-01-10T09:00:51;103192.47;;;-6.18;73.53
85066;BME280;75401;52.588;13.224;2024-01-10T09:03:17;103191.66;;;-6.10;74.08
85066;BME280;75401;52.588;13.224;2024-01-10T09:05:42;103201.28;;;-6.01;73.59
85066;BME280;75401;52.588;13.224;2024-01-10T09:08:07;103208.28;;;-5.93;74.21
85066;BME280;75401;52.588;13.224;2024-01-10T09:10:33;103203.13;;;-5.87;73.42
85066;BME280;75401;52.588;13.224;2024-01-10T09:12:59;103199.72;;;-5.78;73.30
85066;BME280;75401;52.588;13.224;2024-01-10T09:15:25;103202.38;;;-5.70;72.92
85066;BME280;75401;52.588;13.224;2024-01-10T09:17:50;103195.50;;;-5.59;73.29
85066;BME280;75401;52.588;13.224;2024-01-10T09:20:16;103193.81;;;-5.51;72.69
85066;BME280;75401;52.588;13.224;2024-01-10T09:22:41;103192.13;;;-5.43;72.54
85066;BME280;75401;52.588;13.224;2024-01-10T09:25:07;103193.97;;;-5.30;71.87
85066;BME280;75401;52.588;13.224;2024-01-10T09:27:33;103194.00;;;-5.21;71.77
85066;BME280;75401;52.588;13.224;2024-01-10T09:30:00;103188.00;;;-5.11;71.28
85066;BME280;75401;52.588;13.224;2024-01-10T09:32:26;103195.00;;;-4.96;71.31
85066;BME280;75401;52.588;13.224;2024-01-10T09:34:51;103182.00;;;-4.87;70.72
85066;BME280;75401;52.588;13.224;2024-01-10T09:37:17;103184.66;;;-4.74;70.18
85066;BME280;75401;52.588;13.224;2024-01-10T09:39:42;103178.59;;;-4.64;70.76
85066;BME280;75401;52.588;13.224;2024-01-10T09:42:08;103169.94;;;-4.54;69.60
85066;BME280;75401;52.588;13.224;2024-01-10T09:44:33;103177.75;;;-4.49;68.13
85066;BME280;75401;52.588;13.224;2024-01-10T09:47:00;103173.44;;;-4.36;67.21
85066;BME280;75401;52.588;13.224;2024-01-10T09:49:26;103176.09;;;-4.24;67.56
85066;BME280;75401;52.588;13.224;2024-01-10T09:51:57;103174.31;;;-4.16;67.42
85066;BME280;75401;52.588;13.224;2024-01-10T09:54:25;103166.53;;;-4.04;66.45
85066;BME280;75401;52.588;13.224;2024-01-10T09:56:50;103165.66;;;-4.02;66.68
85066;BME280;75401;52.588;13.224;2024-01-10T09:59:16;103166.50;;;-3.85;66.60
85066;BME280;75401;52.588;13.224;2024-01-10T10:01:42;103173.47;;;-3.74;65.50
85066;BME280;75401;52.588;13.224;2024-01-10T10:04:11;103173.47;;;-3.70;65.55
85066;BME280;75401;52.588;13.224;2024-01-10T10:06:37;103175.19;;;-3.57;65.35
85066;BME280;75401;52.588;13.224;2024-01-10T10:09:02;103172.56;;;-3.45;64.85
85066;BME280;75401;52.588;13.224;2024-01-10T10:11:28;103170.81;;;-3.35;65.69
85066;BME280;75401;52.588;13.224;2024-01-10T10:13:53;103168.16;;;-3.26;65.59
85066;BME280;75401;52.588;13.224;2024-01-10T10:16:24;103169.88;;;-3.17;64.76
85066;BME280;75401;52.588;13.224;2024-01-10T10:18:49;103160.25;;;-3.11;63.90
85066;BME280;75401;52.588;13.224;2024-01-10T10:21:16;103144.53;;;-3.02;64.16
85066;BME280;75401;52.588;13.224;2024-01-10T10:23:43;103136.66;;;-2.94;63.67
85066;BME280;75401;52.588;13.224;2024-01-10T10:26:13;103131.41;;;-2.94;63.34
85066;BME280;75401;52.588;13.224;2024-01-10T10:28:39;103135.69;;;-2.80;63.42
85066;BME280;75401;52.588;13.224;2024-01-10T10:31:04;103142.59;;;-2.65;64.75
85066;BME280;75401;52.588;13.224;2024-01-10T10:33:32;103125.97;;;-2.60;64.96
85066;BME280;75401;52.588;13.224;2024-01-10T10:35:57;103135.53;;;-2.48;63.56
85066;BME280;75401;52.588;13.224;2024-01-10T10:38:24;103132.81;;;-2.39;63.16
85066;BME280;75401;52.588;13.224;2024-01-10T10:40:49;103131.03;;;-2.32;64.41
85066;BME280;75401;52.588;13.224;2024-01-10T10:43:18;103129.19;;;-2.21;63.28
85066;BME280;75401;52.588;13.224;2024-01-10T10:45:47;103128.25;;;-2.14;62.20
85066;BME280;75401;52.588;13.224;2024-01-10T10:48:16;103123.84;;;-2.08;62.84
85066;BME280;75401;52.588;13.224;2024-01-10T10:50:46;103135.16;;;-2.01;62.24
85066;BME280;75401;52.588;13.224;2024-01-10T10:53:15;103131.59;;;-1.93;62.24
85066;BME280;75401;52.588;13.224;2024-01-10T10:55:43;103118.47;;;-1.94;60.51
85066;BME280;75401;52.588;13.224;2024-01-10T10:58:09;103134.94;;;-1.74;58.66
85066;BME280;75401;52.588;13.224;2024-01-10T11:00:35;103129.53;;;-1.63;59.44
85066;BME280;75401;52.588;13.224;2024-01-10T11:03:02;103129.56;;;-1.65;58.74
85066;BME280;75401;52.588;13.224;2024-01-10T11:05:28;103124.28;;;-1.60;60.83
85066;BME280;75401;52.588;13.224;2024-01-10T11:07:54;103134.59;;;-1.45;59.68
85066;BME280;75401;52.588;13.224;2024-01-10T11:10:23;103142.41;;;-1.38;58.00
85066;BME280;75401;52.588;13.224;2024-01-10T11:13:24;103127.44;;;-1.30;58.17
85066;BME280;75401;52.588;13.224;2024-01-10T11:16:19;103129.97;;;-1.20;59.56
85066;BME280;75401;52.588;13.224;2024-01-10T11:18:59;103122.94;;;-1.18;57.24
85066;BME280;75401;52.588;13.224;2024-01-10T11:21:37;103124.59;;;-1.11;57.38
85066;BME280;75401;52.588;13.224;2024-01-10T11:24:06;103121.06;;;-1.07;58.25
85066;BME280;75401;52.588;13.224;2024-01-10T11:26:32;103125.41;;;-1.05;56.44
85066;BME280;75401;52.588;13.224;2024-01-10T11:28:59;103122.69;;;-0.99;58.03
85066;BME280;75401;52.588;13.224;2024-01-10T11:31:28;103124.41;;;-0.95;56.33
85066;BME280;75401;52.588;13.224;2024-01-10T11:33:55;103120.00;;;-0.94;56.28
85066;BME280;75401;52.588;13.224;2024-01-10T11:36:21;103113.81;;;-0.87;57.06
85066;BME280;75401;52.588;13.224;2024-01-10T11:38:49;103115.44;;;-0.82;56.71
85066;BME280;75401;52.588;13.224;2024-01-10T11:41:21;103118.03;;;-0.77;58.44
85066;BME280;75401;52.588;13.224;2024-01-10T11:46:49;103111.88;;;-0.75;56.03
85066;BME280;75401;52.588;13.224;2024-01-10T11:49:16;103104.88;;;-0.76;55.32
85066;BME280;75401;52.588;13.224;2024-01-10T11:51:42;103106.50;;;-0.69;55.79
85066;BME280;75401;52.588;13.224;2024-01-10T11:54:08;103097.72;;;-0.66;55.60
85066;BME280;75401;52.588;13.224;2024-01-10T11:56:38;103107.31;;;-0.64;58.06
85066;BME280;75401;52.588;13.224;2024-01-10T11:59:06;103103.72;;;-0.58;56.95
85066;BME280;75401;52.588;13.224;2024-01-10T12:01:32;103106.31;;;-0.55;57.19
85066;BME280;75401;52.588;13.224;2024-01-10T12:03:59;103081.03;;;-0.62;54.85
85066;BME280;75401;52.588;13.224;2024-01-10T12:06:26;103082.56;;;-0.47;55.06
85066;BME280;75401;52.588;13.224;2024-01-10T12:08:51;103073.00;;;-0.53;55.21
85066;BME280;75401;52.588;13.224;2024-01-10T12:11:17;103078.09;;;-0.42;54.95
85066;BME280;75401;52.588;13.224;2024-01-10T12:13:42;103074.50;;;-0.38;55.61
85066;BME280;75401;52.588;13.224;2024-01-10T12:16:08;103076.22;;;-0.34;55.20
85066;BME280;75401;52.588;13.224;2024-01-10T12:18:33;103037.03;;;-0.51;54.79
85066;BME280;75401;52.588;13.224;2024-01-10T12:21:00;103071.72;;;-0.28;56.70
85066;BME280;75401;52.588;13.224;2024-01-10T12:23:25;103070.00;;;-0.29;54.04
85066;BME280;75401;52.588;13.224;2024-01-10T12:25:51;103061.16;;;-0.25;55.88
85066;BME280;75401;52.588;13.224;2024-01-10T12:28:16;103046.34;;;-0.30;55.22
85066;BME280;75401;52.588;13.224;2024-01-10T12:30:42;103059.34;;;-0.23;53.77
85066;BME280;75401;52.588;13.224;2024-01-10T12:33:08;103049.69;;;-0.21;54.12
85066;BME280;75401;52.588;13.224;2024-01-10T12:35:33;103045.28;;;-0.19;54.79
85066;BME280;75401;52.588;13.224;2024-01-10T12:38:00;103055.84;;;-0.22;51.40
85066;BME280;75401;52.588;13.224;2024-01-10T12:40:25;103045.22;;;-0.16;52.59